Buffalo Center, Iowa
Current Conditions -  °F | °C
As of 12:10 PM on Monday 26 Jan 2015 (Local Time) from KFXY Reporting Station
Clear Clear  
Wind Chill: 35°   Ceiling: Unl
Heat Index: 43°   Visibility: 10mi
Dew Point: 34°   Wind: 18mph
Humidity: 70%   Direction: 320°NW
Pressure: 29.76"   Gusts: 23mph
Location:  43.39°N, 93.95°W
Report Text: KFXY 261810Z AUTO 32016G20KT 10SM CLR 06/01 A2976 RMK AO2
Loading
Personal Weather Stations






























Interactive Weather Map New forecast layout! Learn more

10-Day Weather Forecast

Advertisements
Track Severe Weather on mobile